sensor_id;sensor_type;location;lat;lon;timestamp;P1;durP1;ratioP1;P2;durP2;ratioP2
45252;SDS011;63171;50.520;30.486;2023-06-24T00:02:24;9.85;;;8.85;;
45252;SDS011;63171;50.520;30.486;2023-06-24T00:03:15;9.82;;;9.02;;
45252;SDS011;63171;50.520;30.486;2023-06-24T00:04:06;11.00;;;10.05;;
45252;SDS011;63171;50.520;30.486;2023-06-24T00:04:57;9.90;;;9.00;;
45252;SDS011;63171;50.520;30.486;2023-06-24T00:05:49;10.15;;;9.35;;
45252;SDS011;63171;50.520;30.486;2023-06-24T00:06:40;9.68;;;8.82;;
45252;SDS011;63171;50.520;30.486;2023-06-24T00:07:30;10.43;;;9.32;;
45252;SDS011;63171;50.520;30.486;2023-06-24T00:08:21;9.40;;;8.57;;
45252;SDS011;63171;50.520;30.486;2023-06-24T00:09:11;9.02;;;8.15;;
45252;SDS011;63171;50.520;30.486;2023-06-24T00:10:02;10.07;;;9.20;;
45252;SDS011;63171;50.520;30.486;2023-06-24T00:10:54;9.93;;;9.02;;
45252;SDS011;63171;50.520;30.486;2023-06-24T00:11:46;10.63;;;9.80;;
45252;SDS011;63171;50.520;30.486;2023-06-24T00:12:35;9.48;;;8.57;;
45252;SDS011;63171;50.520;30.486;2023-06-24T00:13:28;9.95;;;9.15;;
45252;SDS011;63171;50.520;30.486;2023-06-24T00:14:17;10.05;;;9.35;;
45252;SDS011;63171;50.520;30.486;2023-06-24T00:15:10;9.80;;;8.90;;
45252;SDS011;63171;50.520;30.486;2023-06-24T00:16:51;9.15;;;8.35;;
45252;SDS011;63171;50.520;30.486;2023-06-24T00:17:40;14.82;;;10.45;;
45252;SDS011;63171;50.520;30.486;2023-06-24T00:18:31;10.02;;;9.23;;
45252;SDS011;63171;50.520;30.486;2023-06-24T00:19:21;9.02;;;8.27;;
45252;SDS011;63171;50.520;30.486;2023-06-24T00:20:14;10.10;;;9.25;;
45252;SDS011;63171;50.520;30.486;2023-06-24T00:21:03;10.38;;;9.48;;
45252;SDS011;63171;50.520;30.486;2023-06-24T00:21:54;9.70;;;8.77;;
45252;SDS011;63171;50.520;30.486;2023-06-24T00:22:46;10.60;;;9.57;;
45252;SDS011;63171;50.520;30.486;2023-06-24T00:23:37;10.52;;;9.63;;
45252;SDS011;63171;50.520;30.486;2023-06-24T00:24:27;12.00;;;10.98;;
45252;SDS011;63171;50.520;30.486;2023-06-24T00:25:19;9.55;;;8.85;;
45252;SDS011;63171;50.520;30.486;2023-06-24T00:26:10;11.70;;;10.65;;
45252;SDS011;63171;50.520;30.486;2023-06-24T00:27:01;9.35;;;8.65;;
45252;SDS011;63171;50.520;30.486;2023-06-24T00:27:51;13.05;;;10.05;;
45252;SDS011;63171;50.520;30.486;2023-06-24T00:28:41;13.50;;;10.40;;
45252;SDS011;63171;50.520;30.486;2023-06-24T00:29:31;11.10;;;9.90;;
45252;SDS011;63171;50.520;30.486;2023-06-24T00:30:21;11.00;;;9.95;;
45252;SDS011;63171;50.520;30.486;2023-06-24T00:31:12;11.60;;;10.57;;
45252;SDS011;63171;50.520;30.486;2023-06-24T00:32:01;10.60;;;9.60;;
45252;SDS011;63171;50.520;30.486;2023-06-24T00:32:52;10.35;;;9.55;;
45252;SDS011;63171;50.520;30.486;2023-06-24T00:33:42;18.58;;;13.02;;
45252;SDS011;63171;50.520;30.486;2023-06-24T00:34:33;20.80;;;18.35;;
45252;SDS011;63171;50.520;30.486;2023-06-24T00:35:23;12.82;;;11.52;;
45252;SDS011;63171;50.520;30.486;2023-06-24T00:36:14;22.05;;;19.25;;
45252;SDS011;63171;50.520;30.486;2023-06-24T00:37:04;27.77;;;19.17;;
45252;SDS011;63171;50.520;30.486;2023-06-24T00:37:54;16.25;;;14.40;;
45252;SDS011;63171;50.520;30.486;2023-06-24T00:38:47;15.70;;;13.88;;
45252;SDS011;63171;50.520;30.486;2023-06-24T00:39:39;16.88;;;15.07;;
45252;SDS011;63171;50.520;30.486;2023-06-24T00:40:29;18.98;;;16.00;;
45252;SDS011;63171;50.520;30.486;2023-06-24T00:41:21;18.40;;;16.40;;
45252;SDS011;63171;50.520;30.486;2023-06-24T00:42:12;19.08;;;16.52;;
45252;SDS011;63171;50.520;30.486;2023-06-24T00:43:03;21.75;;;17.38;;
45252;SDS011;63171;50.520;30.486;2023-06-24T00:43:54;18.00;;;16.17;;
45252;SDS011;63171;50.520;30.486;2023-06-24T00:44:47;20.45;;;17.23;;
45252;SDS011;63171;50.520;30.486;2023-06-24T00:45:37;19.33;;;16.15;;
45252;SDS011;63171;50.520;30.486;2023-06-24T00:46:30;18.63;;;16.05;;
45252;SDS011;63171;50.520;30.486;2023-06-24T00:47:20;17.88;;;15.95;;
45252;SDS011;63171;50.520;30.486;2023-06-24T00:48:13;16.85;;;14.88;;
45252;SDS011;63171;50.520;30.486;2023-06-24T00:49:03;17.35;;;15.55;;
45252;SDS011;63171;50.520;30.486;2023-06-24T00:49:54;19.05;;;14.68;;
45252;SDS011;63171;50.520;30.486;2023-06-24T00:50:44;17.33;;;15.57;;
45252;SDS011;63171;50.520;30.486;2023-06-24T00:51:35;15.45;;;13.85;;
45252;SDS011;63171;50.520;30.486;2023-06-24T00:52:25;17.52;;;15.27;;
45252;SDS011;63171;50.520;30.486;2023-06-24T00:53:17;15.65;;;14.07;;
45252;SDS011;63171;50.520;30.486;2023-06-24T00:54:08;15.88;;;14.23;;
45252;SDS011;63171;50.520;30.486;2023-06-24T00:55:00;15.35;;;13.85;;
45252;SDS011;63171;50.520;30.486;2023-06-24T00:55:52;15.90;;;14.30;;
45252;SDS011;63171;50.520;30.486;2023-06-24T00:56:47;17.70;;;13.90;;
45252;SDS011;63171;50.520;30.486;2023-06-24T00:57:37;14.98;;;13.57;;
45252;SDS011;63171;50.520;30.486;2023-06-24T00:58:28;14.85;;;13.23;;
45252;SDS011;63171;50.520;30.486;2023-06-24T00:59:19;14.45;;;13.05;;
45252;SDS011;63171;50.520;30.486;2023-06-24T01:00:10;14.82;;;12.90;;
45252;SDS011;63171;50.520;30.486;2023-06-24T01:01:03;18.38;;;13.43;;
45252;SDS011;63171;50.520;30.486;2023-06-24T01:01:54;16.48;;;12.60;;
45252;SDS011;63171;50.520;30.486;2023-06-24T01:03:36;14.27;;;12.85;;
45252;SDS011;63171;50.520;30.486;2023-06-24T01:04:27;14.20;;;12.75;;
45252;SDS011;63171;50.520;30.486;2023-06-24T01:05:18;14.48;;;12.90;;
45252;SDS011;63171;50.520;30.486;2023-06-24T01:06:13;13.80;;;12.57;;
45252;SDS011;63171;50.520;30.486;2023-06-24T01:07:04;14.13;;;11.68;;
45252;SDS011;63171;50.520;30.486;2023-06-24T01:07:55;13.02;;;11.57;;
45252;SDS011;63171;50.520;30.486;2023-06-24T01:08:46;13.57;;;11.68;;
45252;SDS011;63171;50.520;30.486;2023-06-24T01:09:40;11.98;;;10.77;;
45252;SDS011;63171;50.520;30.486;2023-06-24T01:10:30;13.23;;;11.93;;
45252;SDS011;63171;50.520;30.486;2023-06-24T01:11:21;12.65;;;11.40;;
45252;SDS011;63171;50.520;30.486;2023-06-24T01:12:13;12.68;;;11.48;;
45252;SDS011;63171;50.520;30.486;2023-06-24T01:13:04;12.02;;;10.90;;
45252;SDS011;63171;50.520;30.486;2023-06-24T01:13:54;12.93;;;11.02;;
45252;SDS011;63171;50.520;30.486;2023-06-24T01:14:44;11.35;;;10.25;;
45252;SDS011;63171;50.520;30.486;2023-06-24T01:16:28;12.48;;;11.13;;
45252;SDS011;63171;50.520;30.486;2023-06-24T01:17:24;11.65;;;10.65;;
45252;SDS011;63171;50.520;30.486;2023-06-24T01:18:21;13.32;;;11.45;;
45252;SDS011;63171;50.520;30.486;2023-06-24T01:19:28;10.90;;;9.98;;
45252;SDS011;63171;50.520;30.486;2023-06-24T01:20:34;11.70;;;10.77;;
45252;SDS011;63171;50.520;30.486;2023-06-24T01:21:32;10.77;;;9.85;;
45252;SDS011;63171;50.520;30.486;2023-06-24T01:24:08;11.52;;;10.43;;
45252;SDS011;63171;50.520;30.486;2023-06-24T01:25:28;13.75;;;11.40;;
45252;SDS011;63171;50.520;30.486;2023-06-24T01:28:04;12.25;;;10.77;;
45252;SDS011;63171;50.520;30.486;2023-06-24T01:30:32;11.73;;;10.63;;
45252;SDS011;63171;50.520;30.486;2023-06-24T01:31:40;11.35;;;10.35;;
45252;SDS011;63171;50.520;30.486;2023-06-24T01:32:37;11.35;;;10.38;;
45252;SDS011;63171;50.520;30.486;2023-06-24T01:33:36;11.75;;;10.70;;
45252;SDS011;63171;50.520;30.486;2023-06-24T01:34:33;12.60;;;11.50;;
45252;SDS011;63171;50.520;30.486;2023-06-24T01:35:28;11.65;;;10.55;;
45252;SDS011;63171;50.520;30.486;2023-06-24T01:36:25;11.68;;;10.57;;
45252;SDS011;63171;50.520;30.486;2023-06-24T01:37:27;12.23;;;10.85;;
45252;SDS011;63171;50.520;30.486;2023-06-24T01:38:22;12.50;;;11.00;;
45252;SDS011;63171;50.520;30.486;2023-06-24T01:39:16;12.82;;;11.73;;
45252;SDS011;63171;50.520;30.486;2023-06-24T01:40:09;11.95;;;10.70;;
45252;SDS011;63171;50.520;30.486;2023-06-24T01:41:01;12.07;;;10.98;;
45252;SDS011;63171;50.520;30.486;2023-06-24T01:41:56;11.50;;;10.40;;
45252;SDS011;63171;50.520;30.486;2023-06-24T01:42:50;11.93;;;10.85;;
45252;SDS011;63171;50.520;30.486;2023-06-24T01:43:41;11.50;;;10.43;;
45252;SDS011;63171;50.520;30.486;2023-06-24T01:44:32;11.80;;;10.55;;
45252;SDS011;63171;50.520;30.486;2023-06-24T01:45:26;12.10;;;11.00;;
45252;SDS011;63171;50.520;30.486;2023-06-24T01:46:19;11.80;;;10.80;;
45252;SDS011;63171;50.520;30.486;2023-06-24T01:47:13;12.63;;;11.38;;
45252;SDS011;63171;50.520;30.486;2023-06-24T01:48:06;11.23;;;10.35;;
45252;SDS011;63171;50.520;30.486;2023-06-24T01:49:01;11.43;;;10.48;;
45252;SDS011;63171;50.520;30.486;2023-06-24T01:49:53;12.60;;;11.27;;
45252;SDS011;63171;50.520;30.486;2023-06-24T01:50:48;11.85;;;10.90;;
45252;SDS011;63171;50.520;30.486;2023-06-24T01:51:44;12.40;;;10.88;;
45252;SDS011;63171;50.520;30.486;2023-06-24T01:52:39;12.25;;;11.20;;
45252;SDS011;63171;50.520;30.486;2023-06-24T01:53:32;16.48;;;11.68;;
45252;SDS011;63171;50.520;30.486;2023-06-24T01:54:25;12.35;;;11.23;;
45252;SDS011;63171;50.520;30.486;2023-06-24T01:55:18;12.27;;;11.27;;
45252;SDS011;63171;50.520;30.486;2023-06-24T01:56:12;12.35;;;11.15;;
45252;SDS011;63171;50.520;30.486;2023-06-24T01:57:05;11.80;;;10.80;;
45252;SDS011;63171;50.520;30.486;2023-06-24T01:58:16;12.98;;;11.68;;
45252;SDS011;63171;50.520;30.486;2023-06-24T01:59:08;12.07;;;11.07;;
45252;SDS011;63171;50.520;30.486;2023-06-24T02:00:01;12.32;;;11.32;;
45252;SDS011;63171;50.520;30.486;2023-06-24T02:02:04;11.52;;;10.52;;
45252;SDS011;63171;50.520;30.486;2023-06-24T02:02:56;12.35;;;11.25;;
45252;SDS011;63171;50.520;30.486;2023-06-24T02:03:47;12.75;;;11.60;;
45252;SDS011;63171;50.520;30.486;2023-06-24T02:04:38;12.88;;;11.70;;
45252;SDS011;63171;50.520;30.486;2023-06-24T02:05:30;13.45;;;11.80;;
45252;SDS011;63171;50.520;30.486;2023-06-24T02:06:22;13.93;;;12.57;;
45252;SDS011;63171;50.520;30.486;2023-06-24T02:07:14;12.55;;;11.45;;
45252;SDS011;63171;50.520;30.486;2023-06-24T02:08:06;13.18;;;11.75;;
45252;SDS011;63171;50.520;30.486;2023-06-24T02:08:59;12.27;;;11.23;;
45252;SDS011;63171;50.520;30.486;2023-06-24T02:09:51;12.63;;;11.27;;
45252;SDS011;63171;50.520;30.486;2023-06-24T02:10:43;12.65;;;11.65;;
45252;SDS011;63171;50.520;30.486;2023-06-24T02:11:36;13.00;;;11.85;;
45252;SDS011;63171;50.520;30.486;2023-06-24T02:12:28;12.70;;;11.55;;
45252;SDS011;63171;50.520;30.486;2023-06-24T02:13:19;12.98;;;11.75;;
45252;SDS011;63171;50.520;30.486;2023-06-24T02:14:10;12.95;;;11.77;;
45252;SDS011;63171;50.520;30.486;2023-06-24T02:15:02;14.98;;;12.65;;
45252;SDS011;63171;50.520;30.486;2023-06-24T02:15:56;13.15;;;11.95;;
45252;SDS011;63171;50.520;30.486;2023-06-24T02:16:46;16.92;;;11.48;;
45252;SDS011;63171;50.520;30.486;2023-06-24T02:17:38;13.88;;;12.15;;
45252;SDS011;63171;50.520;30.486;2023-06-24T02:18:30;12.75;;;11.40;;
45252;SDS011;63171;50.520;30.486;2023-06-24T02:19:21;15.00;;;12.15;;
45252;SDS011;63171;50.520;30.486;2023-06-24T02:20:12;12.73;;;11.63;;
45252;SDS011;63171;50.520;30.486;2023-06-24T02:21:05;12.20;;;11.20;;
45252;SDS011;63171;50.520;30.486;2023-06-24T02:21:56;13.55;;;12.25;;
45252;SDS011;63171;50.520;30.486;2023-06-24T02:22:48;13.95;;;12.60;;
45252;SDS011;63171;50.520;30.486;2023-06-24T02:23:38;12.52;;;11.43;;
45252;SDS011;63171;50.520;30.486;2023-06-24T02:24:29;13.40;;;12.00;;
45252;SDS011;63171;50.520;30.486;2023-06-24T02:26:10;14.60;;;12.30;;
45252;SDS011;63171;50.520;30.486;2023-06-24T02:27:01;13.40;;;12.20;;
45252;SDS011;63171;50.520;30.486;2023-06-24T02:27:52;12.70;;;11.50;;
45252;SDS011;63171;50.520;30.486;2023-06-24T02:28:44;12.57;;;11.45;;
45252;SDS011;63171;50.520;30.486;2023-06-24T02:29:35;13.02;;;11.75;;
45252;SDS011;63171;50.520;30.486;2023-06-24T02:30:27;13.50;;;12.23;;
45252;SDS011;63171;50.520;30.486;2023-06-24T02:31:19;13.73;;;12.35;;
45252;SDS011;63171;50.520;30.486;2023-06-24T02:32:09;12.88;;;11.70;;
45252;SDS011;63171;50.520;30.486;2023-06-24T02:32:59;14.20;;;12.90;;
45252;SDS011;63171;50.520;30.486;2023-06-24T02:33:51;14.02;;;12.13;;
45252;SDS011;63171;50.520;30.486;2023-06-24T02:34:42;14.05;;;11.38;;
45252;SDS011;63171;50.520;30.486;2023-06-24T02:35:32;12.30;;;11.30;;
45252;SDS011;63171;50.520;30.486;2023-06-24T02:36:23;13.68;;;12.35;;
45252;SDS011;63171;50.520;30.486;2023-06-24T02:37:12;14.15;;;12.65;;
45252;SDS011;63171;50.520;30.486;2023-06-24T02:38:03;12.23;;;11.23;;
45252;SDS011;63171;50.520;30.486;2023-06-24T02:38:53;12.30;;;11.20;;
45252;SDS011;63171;50.520;30.486;2023-06-24T02:39:44;14.32;;;12.82;;
45252;SDS011;63171;50.520;30.486;2023-06-24T02:41:25;12.15;;;11.15;;
45252;SDS011;63171;50.520;30.486;2023-06-24T02:42:15;15.15;;;11.82;;
45252;SDS011;63171;50.520;30.486;2023-06-24T02:43:05;13.55;;;12.30;;
45252;SDS011;63171;50.520;30.486;2023-06-24T02:43:56;14.40;;;12.90;;
45252;SDS011;63171;50.520;30.486;2023-06-24T02:44:46;16.35;;;11.88;;
45252;SDS011;63171;50.520;30.486;2023-06-24T02:45:36;13.88;;;11.82;;
45252;SDS011;63171;50.520;30.486;2023-06-24T02:46:28;11.68;;;10.60;;
45252;SDS011;63171;50.520;30.486;2023-06-24T02:47:20;12.20;;;11.13;;
45252;SDS011;63171;50.520;30.486;2023-06-24T02:48:11;13.32;;;11.85;;
45252;SDS011;63171;50.520;30.486;2023-06-24T02:49:04;13.15;;;11.95;;
45252;SDS011;63171;50.520;30.486;2023-06-24T02:49:55;12.43;;;11.20;;
45252;SDS011;63171;50.520;30.486;2023-06-24T02:50:47;11.98;;;10.82;;
45252;SDS011;63171;50.520;30.486;2023-06-24T02:51:38;12.93;;;11.73;;
45252;SDS011;63171;50.520;30.486;2023-06-24T02:52:29;14.85;;;11.43;;
45252;SDS011;63171;50.520;30.486;2023-06-24T02:54:11;13.88;;;12.20;;
45252;SDS011;63171;50.520;30.486;2023-06-24T02:56:15;12.02;;;10.82;;
45252;SDS011;63171;50.520;30.486;2023-06-24T02:57:10;14.48;;;10.98;;
45252;SDS011;63171;50.520;30.486;2023-06-24T02:58:23;12.35;;;10.13;;
45252;SDS011;63171;50.520;30.486;2023-06-24T02:59:24;12.38;;;11.35;;
45252;SDS011;63171;50.520;30.486;2023-06-24T03:00:16;13.20;;;11.95;;
45252;SDS011;63171;50.520;30.486;2023-06-24T03:01:27;11.93;;;10.73;;
45252;SDS011;63171;50.520;30.486;2023-06-24T03:02:20;12.63;;;11.43;;
45252;SDS011;63171;50.520;30.486;2023-06-24T03:03:11;14.80;;;12.43;;
45252;SDS011;63171;50.520;30.486;2023-06-24T03:04:09;12.13;;;10.80;;
45252;SDS011;63171;50.520;30.486;2023-06-24T03:05:01;12.02;;;11.05;;
45252;SDS011;63171;50.520;30.486;2023-06-24T03:05:53;14.43;;;11.45;;
45252;SDS011;63171;50.520;30.486;2023-06-24T03:06:46;14.18;;;11.32;;
45252;SDS011;63171;50.520;30.486;2023-06-24T03:07:38;13.73;;;12.38;;
45252;SDS011;63171;50.520;30.486;2023-06-24T03:08:30;12.50;;;11.18;;
45252;SDS011;63171;50.520;30.486;2023-06-24T03:09:20;16.10;;;11.68;;
45252;SDS011;63171;50.520;30.486;2023-06-24T03:10:13;13.43;;;10.98;;
45252;SDS011;63171;50.520;30.486;2023-06-24T03:11:04;12.80;;;11.15;;
45252;SDS011;63171;50.520;30.486;2023-06-24T03:11:56;14.65;;;11.68;;
45252;SDS011;63171;50.520;30.486;2023-06-24T03:12:56;19.98;;;12.93;;
45252;SDS011;63171;50.520;30.486;2023-06-24T03:13:54;13.38;;;12.18;;
45252;SDS011;63171;50.520;30.486;2023-06-24T03:14:46;12.30;;;11.07;;
45252;SDS011;63171;50.520;30.486;2023-06-24T03:15:39;14.25;;;11.93;;
45252;SDS011;63171;50.520;30.486;2023-06-24T03:16:29;13.20;;;10.95;;
45252;SDS011;63171;50.520;30.486;2023-06-24T03:17:25;13.65;;;11.77;;
45252;SDS011;63171;50.520;30.486;2023-06-24T03:18:15;12.23;;;11.02;;
45252;SDS011;63171;50.520;30.486;2023-06-24T03:19:07;13.82;;;11.18;;
45252;SDS011;63171;50.520;30.486;2023-06-24T03:19:59;13.55;;;11.82;;
45252;SDS011;63171;50.520;30.486;2023-06-24T03:20:50;12.43;;;11.23;;
45252;SDS011;63171;50.520;30.486;2023-06-24T03:21:44;12.18;;;10.45;;
45252;SDS011;63171;50.520;30.486;2023-06-24T03:22:38;14.35;;;11.35;;
45252;SDS011;63171;50.520;30.486;2023-06-24T03:23:33;12.07;;;10.98;;
45252;SDS011;63171;50.520;30.486;2023-06-24T03:24:24;13.30;;;11.27;;
45252;SDS011;63171;50.520;30.486;2023-06-24T03:25:13;13.13;;;11.52;;
45252;SDS011;63171;50.520;30.486;2023-06-24T03:26:05;14.40;;;12.10;;
45252;SDS011;63171;50.520;30.486;2023-06-24T03:26:56;13.32;;;12.10;;
45252;SDS011;63171;50.520;30.486;2023-06-24T03:27:52;12.82;;;11.40;;
45252;SDS011;63171;50.520;30.486;2023-06-24T03:28:43;16.02;;;12.55;;
45252;SDS011;63171;50.520;30.486;2023-06-24T03:29:38;13.55;;;11.43;;
45252;SDS011;63171;50.520;30.486;2023-06-24T03:30:36;13.82;;;11.90;;
45252;SDS011;63171;50.520;30.486;2023-06-24T03:31:27;13.18;;;11.00;;
45252;SDS011;63171;50.520;30.486;2023-06-24T03:33:09;14.70;;;11.75;;
45252;SDS011;63171;50.520;30.486;2023-06-24T03:33:59;12.35;;;11.13;;
45252;SDS011;63171;50.520;30.486;2023-06-24T03:34:51;12.35;;;10.90;;
45252;SDS011;63171;50.520;30.486;2023-06-24T03:35:42;17.50;;;12.63;;
45252;SDS011;63171;50.520;30.486;2023-06-24T03:36:36;13.98;;;12.63;;
45252;SDS011;63171;50.520;30.486;2023-06-24T03:37:29;15.15;;;11.07;;
45252;SDS011;63171;50.520;30.486;2023-06-24T03:39:10;13.40;;;11.82;;
45252;SDS011;63171;50.520;30.486;2023-06-24T03:40:01;12.57;;;10.85;;
45252;SDS011;63171;50.520;30.486;2023-06-24T03:40:53;17.90;;;11.57;;
45252;SDS011;63171;50.520;30.486;2023-06-24T03:41:44;14.85;;;11.80;;
45252;SDS011;63171;50.520;30.486;2023-06-24T03:42:35;13.25;;;11.82;;
45252;SDS011;63171;50.520;30.486;2023-06-24T03:43:25;13.18;;;11.77;;
45252;SDS011;63171;50.520;30.486;2023-06-24T03:44:15;13.25;;;12.15;;
45252;SDS011;63171;50.520;30.486;2023-06-24T03:45:06;13.02;;;11.65;;
45252;SDS011;63171;50.520;30.486;2023-06-24T03:45:56;13.07;;;11.77;;
45252;SDS011;63171;50.520;30.486;2023-06-24T03:46:49;12.18;;;11.18;;
45252;SDS011;63171;50.520;30.486;2023-06-24T03:47:39;15.65;;;11.48;;
45252;SDS011;63171;50.520;30.486;2023-06-24T03:48:29;16.45;;;12.02;;
45252;SDS011;63171;50.520;30.486;2023-06-24T03:49:19;23.35;;;11.95;;
45252;SDS011;63171;50.520;30.486;2023-06-24T03:50:11;14.18;;;12.68;;
45252;SDS011;63171;50.520;30.486;2023-06-24T03:51:03;12.70;;;11.45;;
45252;SDS011;63171;50.520;30.486;2023-06-24T03:51:54;14.80;;;11.18;;
45252;SDS011;63171;50.520;30.486;2023-06-24T03:52:44;12.63;;;11.30;;
45252;SDS011;63171;50.520;30.486;2023-06-24T03:53:35;13.20;;;11.90;;
45252;SDS011;63171;50.520;30.486;2023-06-24T03:54:24;16.40;;;12.50;;
45252;SDS011;63171;50.520;30.486;2023-06-24T03:55:15;12.93;;;11.57;;
45252;SDS011;63171;50.520;30.486;2023-06-24T03:56:05;14.57;;;11.45;;
45252;SDS011;63171;50.520;30.486;2023-06-24T03:56:55;13.32;;;11.98;;
45252;SDS011;63171;50.520;30.486;2023-06-24T03:57:45;11.38;;;10.38;;
45252;SDS011;63171;50.520;30.486;2023-06-24T03:58:35;12.90;;;11.60;;
45252;SDS011;63171;50.520;30.486;2023-06-24T03:59:26;11.85;;;10.38;;
45252;SDS011;63171;50.520;30.486;2023-06-24T04:00:18;12.25;;;11.10;;
45252;SDS011;63171;50.520;30.486;2023-06-24T04:01:10;12.77;;;11.43;;
45252;SDS011;63171;50.520;30.486;2023-06-24T04:02:00;12.07;;;10.95;;
45252;SDS011;63171;50.520;30.486;2023-06-24T04:02:50;13.40;;;11.02;;
45252;SDS011;63171;50.520;30.486;2023-06-24T04:03:41;12.35;;;10.95;;
45252;SDS011;63171;50.520;30.486;2023-06-24T04:04:32;25.50;;;11.60;;
45252;SDS011;63171;50.520;30.486;2023-06-24T04:05:22;13.13;;;11.88;;
45252;SDS011;63171;50.520;30.486;2023-06-24T04:06:15;11.40;;;10.35;;
45252;SDS011;63171;50.520;30.486;2023-06-24T04:07:04;11.52;;;10.43;;
45252;SDS011;63171;50.520;30.486;2023-06-24T04:07:55;12.75;;;11.30;;
45252;SDS011;63171;50.520;30.486;2023-06-24T04:08:45;13.25;;;11.15;;
45252;SDS011;63171;50.520;30.486;2023-06-24T04:09:38;14.77;;;12.35;;
45252;SDS011;63171;50.520;30.486;2023-06-24T04:10:28;13.30;;;11.23;;
45252;SDS011;63171;50.520;30.486;2023-06-24T04:11:18;11.57;;;10.48;;
45252;SDS011;63171;50.520;30.486;2023-06-24T04:12:08;12.57;;;11.10;;
45252;SDS011;63171;50.520;30.486;2023-06-24T04:12:59;16.38;;;11.70;;
45252;SDS011;63171;50.520;30.486;2023-06-24T04:14:40;18.95;;;10.98;;
45252;SDS011;63171;50.520;30.486;2023-06-24T04:15:30;20.92;;;10.07;;
45252;SDS011;63171;50.520;30.486;2023-06-24T04:16:20;11.98;;;10.98;;
45252;SDS011;63171;50.520;30.486;2023-06-24T04:17:10;12.93;;;11.13;;
45252;SDS011;63171;50.520;30.486;2023-06-24T04:18:00;12.88;;;11.40;;
45252;SDS011;63171;50.520;30.486;2023-06-24T04:18:51;13.10;;;11.43;;
45252;SDS011;63171;50.520;30.486;2023-06-24T04:19:41;14.65;;;11.23;;
45252;SDS011;63171;50.520;30.486;2023-06-24T04:20:32;12.18;;;10.77;;
45252;SDS011;63171;50.520;30.486;2023-06-24T04:21:24;12.55;;;10.68;;
45252;SDS011;63171;50.520;30.486;2023-06-24T04:22:15;12.65;;;10.25;;
45252;SDS011;63171;50.520;30.486;2023-06-24T04:23:05;12.13;;;10.68;;
45252;SDS011;63171;50.520;30.486;2023-06-24T04:23:58;15.98;;;11.85;;
45252;SDS011;63171;50.520;30.486;2023-06-24T04:24:48;15.15;;;11.07;;
45252;SDS011;63171;50.520;30.486;2023-06-24T04:25:40;12.80;;;10.90;;
45252;SDS011;63171;50.520;30.486;2023-06-24T04:26:30;21.52;;;11.48;;
45252;SDS011;63171;50.520;30.486;2023-06-24T04:27:20;13.23;;;11.85;;
45252;SDS011;63171;50.520;30.486;2023-06-24T04:28:10;13.57;;;10.90;;
45252;SDS011;63171;50.520;30.486;2023-06-24T04:29:01;13.50;;;10.75;;
45252;SDS011;63171;50.520;30.486;2023-06-24T04:29:51;15.90;;;11.57;;
45252;SDS011;63171;50.520;30.486;2023-06-24T04:30:42;11.82;;;10.40;;
45252;SDS011;63171;50.520;30.486;2023-06-24T04:31:32;13.45;;;10.60;;
45252;SDS011;63171;50.520;30.486;2023-06-24T04:32:23;11.35;;;10.32;;
45252;SDS011;63171;50.520;30.486;2023-06-24T04:33:13;11.77;;;10.75;;
45252;SDS011;63171;50.520;30.486;2023-06-24T04:34:04;11.50;;;9.75;;
45252;SDS011;63171;50.520;30.486;2023-06-24T04:34:55;13.23;;;11.07;;
45252;SDS011;63171;50.520;30.486;2023-06-24T04:35:46;10.55;;;9.55;;
45252;SDS011;63171;50.520;30.486;2023-06-24T04:36:38;11.73;;;10.30;;
45252;SDS011;63171;50.520;30.486;2023-06-24T04:37:29;19.52;;;11.63;;
45252;SDS011;63171;50.520;30.486;2023-06-24T04:38:19;13.77;;;10.77;;
45252;SDS011;63171;50.520;30.486;2023-06-24T04:39:11;11.05;;;9.95;;
45252;SDS011;63171;50.520;30.486;2023-06-24T04:40:00;13.98;;;11.57;;
45252;SDS011;63171;50.520;30.486;2023-06-24T04:40:50;12.48;;;11.18;;
45252;SDS011;63171;50.520;30.486;2023-06-24T04:41:41;13.52;;;10.52;;
45252;SDS011;63171;50.520;30.486;2023-06-24T04:42:31;18.98;;;10.57;;
45252;SDS011;63171;50.520;30.486;2023-06-24T04:43:21;13.52;;;10.43;;
45252;SDS011;63171;50.520;30.486;2023-06-24T04:44:11;15.88;;;10.90;;
45252;SDS011;63171;50.520;30.486;2023-06-24T04:45:01;13.70;;;11.65;;
45252;SDS011;63171;50.520;30.486;2023-06-24T04:45:54;11.82;;;9.82;;
45252;SDS011;63171;50.520;30.486;2023-06-24T04:46:44;16.42;;;11.10;;
45252;SDS011;63171;50.520;30.486;2023-06-24T04:47:35;13.55;;;10.50;;
45252;SDS011;63171;50.520;30.486;2023-06-24T04:48:26;12.07;;;10.70;;
45252;SDS011;63171;50.520;30.486;2023-06-24T04:49:17;10.23;;;9.23;;
45252;SDS011;63171;50.520;30.486;2023-06-24T04:50:07;11.80;;;10.20;;
45252;SDS011;63171;50.520;30.486;2023-06-24T04:50:59;12.30;;;10.90;;
45252;SDS011;63171;50.520;30.486;2023-06-24T04:51:50;18.60;;;9.27;;
45252;SDS011;63171;50.520;30.486;2023-06-24T04:52:41;15.20;;;10.05;;
45252;SDS011;63171;50.520;30.486;2023-06-24T04:53:31;11.77;;;10.20;;
45252;SDS011;63171;50.520;30.486;2023-06-24T04:54:23;10.75;;;9.55;;
45252;SDS011;63171;50.520;30.486;2023-06-24T04:55:13;12.40;;;10.05;;
45252;SDS011;63171;50.520;30.486;2023-06-24T04:56:03;14.38;;;10.07;;
45252;SDS011;63171;50.520;30.486;2023-06-24T04:56:53;13.32;;;10.43;;
45252;SDS011;63171;50.520;30.486;2023-06-24T04:57:45;14.80;;;10.13;;
45252;SDS011;63171;50.520;30.486;2023-06-24T04:58:34;10.80;;;9.73;;
45252;SDS011;63171;50.520;30.486;2023-06-24T04:59:25;14.52;;;9.73;;
45252;SDS011;63171;50.520;30.486;2023-06-24T05:00:15;11.13;;;9.35;;
45252;SDS011;63171;50.520;30.486;2023-06-24T05:01:06;11.40;;;10.07;;
45252;SDS011;63171;50.520;30.486;2023-06-24T05:01:56;17.58;;;10.70;;
45252;SDS011;63171;50.520;30.486;2023-06-24T05:02:46;14.40;;;9.88;;
45252;SDS011;63171;50.520;30.486;2023-06-24T05:03:36;15.40;;;10.07;;
45252;SDS011;63171;50.520;30.486;2023-06-24T05:04:27;13.27;;;11.05;;
45252;SDS011;63171;50.520;30.486;2023-06-24T05:05:17;11.38;;;9.65;;
45252;SDS011;63171;50.520;30.486;2023-06-24T05:06:09;10.15;;;9.13;;
45252;SDS011;63171;50.520;30.486;2023-06-24T05:07:00;11.88;;;9.45;;
45252;SDS011;63171;50.520;30.486;2023-06-24T05:07:51;13.88;;;9.00;;
45252;SDS011;63171;50.520;30.486;2023-06-24T05:08:41;14.50;;;9.93;;
45252;SDS011;63171;50.520;30.486;2023-06-24T05:09:31;13.73;;;9.57;;
45252;SDS011;63171;50.520;30.486;2023-06-24T05:10:21;14.85;;;10.30;;
45252;SDS011;63171;50.520;30.486;2023-06-24T05:11:11;14.10;;;10.85;;
45252;SDS011;63171;50.520;30.486;2023-06-24T05:12:01;18.17;;;9.55;;
45252;SDS011;63171;50.520;30.486;2023-06-24T05:12:52;10.82;;;9.73;;
45252;SDS011;63171;50.520;30.486;2023-06-24T05:13:42;10.65;;;9.65;;
45252;SDS011;63171;50.520;30.486;2023-06-24T05:14:34;13.32;;;9.88;;
45252;SDS011;63171;50.520;30.486;2023-06-24T05:15:24;9.93;;;8.90;;
45252;SDS011;63171;50.520;30.486;2023-06-24T05:16:15;14.88;;;9.90;;
45252;SDS011;63171;50.520;30.486;2023-06-24T05:17:06;11.82;;;8.48;;